Time;durP1;ratioP1;P1;durP2;ratioP2;P2;SDS_P1;SDS_P2;PMS_P1;PMS_P2;Temp;Humidity;BMP_temperature;BMP_pressure;BME280_temperature;BME280_humidity;BME280_pressure;Samples;Min_cycle;Max_cycle;Signal;HPM_P1;HPM_P2
2024/01/11 00:00:44;;;;;;;10.40;4.03;;;-2.40;99.90;;;;;;5044707;28;20040;-73
2024/01/11 00:03:10;;;;;;;10.25;3.65;;;-2.40;99.90;;;;;;5045660;28;20041;-74
2024/01/11 00:05:36;;;;;;;11.57;4.65;;;-2.50;99.90;;;;;;5045097;28;20116;-74
2024/01/11 00:08:02;;;;;;;12.02;3.80;;;-2.50;99.90;;;;;;5031365;28;20040;-73
2024/01/11 00:10:28;;;;;;;13.35;4.10;;;-2.50;99.90;;;;;;5025778;28;20072;-74
2024/01/11 00:12:53;;;;;;;10.52;3.60;;;-2.60;99.90;;;;;;5025774;28;20037;-72
2024/01/11 00:15:19;;;;;;;11.52;3.97;;;-2.60;99.90;;;;;;5024414;28;20076;-73
2024/01/11 00:17:44;;;;;;;10.20;4.30;;;-2.60;99.90;;;;;;5024593;28;20961;-74
2024/01/11 00:20:10;;;;;;;14.95;5.30;;;-2.60;99.90;;;;;;5004681;28;20030;-74
2024/01/11 00:22:36;;;;;;;9.93;4.45;;;-2.60;99.90;;;;;;5011670;28;20037;-74
2024/01/11 00:25:02;;;;;;;13.88;5.68;;;-2.60;99.90;;;;;;5019317;28;20034;-74
2024/01/11 00:27:28;;;;;;;12.07;4.18;;;-2.60;99.90;;;;;;5018549;28;20030;-73
2024/01/11 00:29:53;;;;;;;11.68;4.07;;;-2.60;99.90;;;;;;5024982;28;20481;-72
2024/01/11 00:32:20;;;;;;;11.85;4.20;;;-2.70;99.90;;;;;;5024272;28;20028;-74
2024/01/11 00:34:46;;;;;;;13.13;4.80;;;-2.70;99.90;;;;;;5024132;28;20037;-73
2024/01/11 00:37:12;;;;;;;8.35;3.63;;;-2.70;99.90;;;;;;5010158;28;20122;-74
2024/01/11 00:39:38;;;;;;;13.50;4.05;;;-2.70;99.90;;;;;;5023171;28;20128;-73
2024/01/11 00:42:04;;;;;;;11.63;4.45;;;-2.70;99.90;;;;;;5023460;28;20033;-74
2024/01/11 00:44:29;;;;;;;8.82;4.00;;;-2.70;99.90;;;;;;5024343;28;20091;-74
2024/01/11 00:46:55;;;;;;;14.00;4.70;;;-2.80;99.90;;;;;;5022729;28;20033;-75
2024/01/11 00:49:21;;;;;;;11.55;4.32;;;-2.80;99.90;;;;;;5025381;28;20617;-74
2024/01/11 00:51:47;;;;;;;13.68;4.45;;;-2.80;99.90;;;;;;5024117;28;20029;-73
2024/01/11 00:54:12;;;;;;;13.25;4.38;;;-2.80;99.90;;;;;;5023050;28;20033;-72
2024/01/11 00:56:38;;;;;;;17.75;6.00;;;-2.80;99.90;;;;;;5024342;28;20103;-73
2024/01/11 00:59:04;;;;;;;11.20;4.35;;;-2.80;99.90;;;;;;5016230;28;20030;-73
2024/01/11 01:01:29;;;;;;;13.48;4.25;;;-2.80;99.90;;;;;;5019392;28;20498;-74
2024/01/11 01:03:55;;;;;;;12.05;4.00;;;-2.80;99.90;;;;;;5009111;28;20834;-73
2024/01/11 01:06:21;;;;;;;14.52;4.43;;;-2.90;99.90;;;;;;5023541;28;20033;-73
2024/01/11 01:08:46;;;;;;;11.95;4.30;;;-2.80;99.90;;;;;;5023241;28;20041;-73
2024/01/11 01:11:12;;;;;;;14.63;4.53;;;-2.90;99.90;;;;;;5022506;28;20069;-73
2024/01/11 01:13:37;;;;;;;10.57;4.43;;;-2.90;99.90;;;;;;5014491;28;20469;-72
2024/01/11 01:16:03;;;;;;;9.07;3.35;;;-2.90;99.90;;;;;;5003489;28;20042;-74
2024/01/11 01:18:29;;;;;;;15.25;5.97;;;-2.90;99.90;;;;;;5023459;28;20045;-73
2024/01/11 01:20:55;;;;;;;16.23;5.10;;;-2.90;99.90;;;;;;5007620;28;20457;-73
2024/01/11 01:23:21;;;;;;;12.90;4.50;;;-2.80;99.90;;;;;;5012701;28;20041;-75
2024/01/11 01:25:47;;;;;;;13.35;4.63;;;-2.90;99.90;;;;;;5023547;28;20038;-73
2024/01/11 01:28:12;;;;;;;13.05;4.30;;;-2.90;99.90;;;;;;5025124;28;20037;-75
2024/01/11 01:30:38;;;;;;;13.57;4.97;;;-2.90;99.90;;;;;;5023423;28;20029;-73
2024/01/11 01:33:04;;;;;;;14.10;4.65;;;-2.90;99.90;;;;;;5022871;28;20037;-73
2024/01/11 01:35:29;;;;;;;10.88;4.60;;;-3.00;99.90;;;;;;5024101;28;20036;-73
2024/01/11 01:37:55;;;;;;;11.25;4.85;;;-3.00;99.90;;;;;;5024957;28;20125;-73
2024/01/11 01:40:21;;;;;;;10.25;4.15;;;-3.00;99.90;;;;;;5023121;28;20038;-73
2024/01/11 01:42:48;;;;;;;15.82;5.25;;;-3.00;99.90;;;;;;5022488;28;20029;-75
2024/01/11 01:45:15;;;;;;;10.13;4.00;;;-3.00;99.90;;;;;;5023588;28;20112;-72
2024/01/11 01:47:43;;;;;;;15.50;5.30;;;-3.00;99.90;;;;;;5023624;28;20141;-73
2024/01/11 01:50:10;;;;;;;14.45;5.28;;;-3.10;99.90;;;;;;5014057;28;20026;-73
2024/01/11 01:52:37;;;;;;;14.75;5.00;;;-3.10;99.90;;;;;;5004477;28;20061;-73
2024/01/11 01:55:05;;;;;;;10.93;4.40;;;-3.10;99.90;;;;;;5004743;28;20030;-73
2024/01/11 01:57:33;;;;;;;10.80;4.28;;;-3.10;99.90;;;;;;5016861;28;20634;-73
2024/01/11 01:59:59;;;;;;;12.13;4.72;;;-3.10;99.90;;;;;;5035162;28;20452;-73
2024/01/11 02:02:25;;;;;;;11.80;3.90;;;-3.10;99.90;;;;;;5024522;28;20034;-73
2024/01/11 02:04:51;;;;;;;10.85;5.18;;;-3.10;99.90;;;;;;5010831;28;20405;-73
2024/01/11 02:07:18;;;;;;;12.98;4.72;;;-3.10;99.90;;;;;;5016955;28;20078;-73
2024/01/11 02:09:44;;;;;;;12.65;4.28;;;-3.20;99.90;;;;;;5037114;28;20123;-74
2024/01/11 02:12:12;;;;;;;12.73;5.00;;;-3.20;99.90;;;;;;5017457;28;20045;-74
2024/01/11 02:14:37;;;;;;;10.73;4.93;;;-3.20;99.90;;;;;;5010006;28;20045;-73
2024/01/11 02:17:04;;;;;;;17.20;5.28;;;-3.30;99.90;;;;;;5026993;28;20580;-73
2024/01/11 02:19:30;;;;;;;14.02;5.35;;;-3.30;99.90;;;;;;5027796;28;20030;-73
2024/01/11 02:21:59;;;;;;;14.57;5.55;;;-3.30;99.90;;;;;;5025958;28;20033;-75
2024/01/11 02:24:25;;;;;;;14.13;5.72;;;-3.30;99.90;;;;;;5028163;28;20025;-73
2024/01/11 02:27:08;;;;;;;17.25;6.45;;;-3.20;99.90;;;;;;5022136;28;20048;-73
2024/01/11 02:29:34;;;;;;;14.35;6.70;;;-3.20;99.90;;;;;;5024212;28;20049;-73
2024/01/11 02:32:02;;;;;;;14.55;5.43;;;-3.30;99.90;;;;;;5026219;28;20084;-73
2024/01/11 02:34:29;;;;;;;19.00;6.53;;;-3.20;99.90;;;;;;5013826;28;20463;-74
2024/01/11 02:36:54;;;;;;;17.42;5.68;;;-3.30;99.90;;;;;;5006443;28;20042;-73
2024/01/11 02:39:23;;;;;;;15.48;5.82;;;-3.30;99.90;;;;;;5017627;28;20091;-72
2024/01/11 02:41:50;;;;;;;11.10;4.70;;;-3.30;99.90;;;;;;5018976;28;20040;-73
2024/01/11 02:44:16;;;;;;;12.55;4.75;;;-3.40;99.90;;;;;;5006003;28;20118;-72
2024/01/11 02:46:42;;;;;;;15.45;5.53;;;-3.40;99.90;;;;;;5019205;28;20128;-73
2024/01/11 02:49:07;;;;;;;14.85;6.88;;;-3.40;99.90;;;;;;5018921;28;20064;-74
2024/01/11 02:51:33;;;;;;;19.08;5.90;;;-3.40;99.90;;;;;;5027209;28;20096;-74
2024/01/11 02:53:58;;;;;;;16.73;6.20;;;-3.40;99.90;;;;;;5025422;28;20033;-73
2024/01/11 02:56:24;;;;;;;13.88;5.07;;;-3.40;99.90;;;;;;5025841;28;20187;-73
2024/01/11 02:58:50;;;;;;;18.35;6.88;;;-3.40;99.90;;;;;;5025371;28;20045;-73
2024/01/11 03:01:15;;;;;;;15.95;5.40;;;-3.40;99.90;;;;;;5027300;28;20049;-73
2024/01/11 03:03:41;;;;;;;16.00;5.32;;;-3.50;99.90;;;;;;5025944;28;20501;-74
2024/01/11 03:06:07;;;;;;;15.20;6.45;;;-3.40;99.90;;;;;;5025383;28;20044;-73
2024/01/11 03:08:32;;;;;;;14.80;5.28;;;-3.50;99.90;;;;;;5043049;28;20401;-74
2024/01/11 03:10:58;;;;;;;14.20;6.10;;;-3.50;99.90;;;;;;5044037;28;20036;-73
2024/01/11 03:13:23;;;;;;;14.70;6.18;;;-3.50;99.90;;;;;;5032197;28;20143;-72
2024/01/11 03:15:49;;;;;;;15.25;5.60;;;-3.50;99.90;;;;;;5027488;28;20037;-72
2024/01/11 03:18:15;;;;;;;18.48;5.65;;;-3.50;99.90;;;;;;5027034;28;20381;-74
2024/01/11 03:20:40;;;;;;;16.45;5.93;;;-3.60;99.90;;;;;;5013551;28;20156;-74
2024/01/11 03:23:06;;;;;;;17.77;5.93;;;-3.60;99.90;;;;;;5011533;28;20056;-73
2024/01/11 03:25:32;;;;;;;20.88;6.50;;;-3.50;99.90;;;;;;5018063;28;20038;-73
2024/01/11 03:28:01;;;;;;;22.63;6.55;;;-3.60;99.90;;;;;;5021459;28;20068;-73
2024/01/11 03:30:26;;;;;;;19.88;7.60;;;-3.60;99.90;;;;;;5011306;28;20034;-73
2024/01/11 03:32:52;;;;;;;15.80;6.53;;;-3.60;99.90;;;;;;5021406;28;20414;-72
2024/01/11 03:35:18;;;;;;;18.83;7.03;;;-3.60;99.90;;;;;;5026822;28;20050;-73
2024/01/11 03:37:44;;;;;;;18.05;7.68;;;-3.70;99.90;;;;;;5025614;28;20022;-73
2024/01/11 03:40:10;;;;;;;20.95;7.90;;;-3.70;99.90;;;;;;5025624;28;20398;-73
2024/01/11 03:42:36;;;;;;;17.30;6.93;;;-3.70;99.90;;;;;;5006955;28;20030;-72
2024/01/11 03:45:03;;;;;;;18.08;7.95;;;-3.70;99.90;;;;;;5006006;28;20038;-73
2024/01/11 03:47:28;;;;;;;18.90;7.38;;;-3.80;99.90;;;;;;5021218;28;20033;-73
2024/01/11 03:49:54;;;;;;;22.27;7.03;;;-3.80;99.90;;;;;;5009687;28;20042;-74
2024/01/11 03:52:20;;;;;;;26.00;8.52;;;-3.80;99.90;;;;;;5026027;28;20033;-73
2024/01/11 03:54:45;;;;;;;18.75;7.28;;;-3.80;99.90;;;;;;5011068;28;20125;-73
2024/01/11 03:57:11;;;;;;;21.50;7.88;;;-3.80;99.90;;;;;;5011592;28;20120;-73
2024/01/11 03:59:37;;;;;;;18.58;6.72;;;-3.80;99.90;;;;;;5020649;28;20030;-73
2024/01/11 04:02:02;;;;;;;17.60;6.95;;;-3.70;99.90;;;;;;5006035;28;20045;-72
2024/01/11 04:04:28;;;;;;;22.63;7.70;;;-3.80;99.90;;;;;;5016829;28;20458;-73
2024/01/11 04:06:53;;;;;;;20.95;7.82;;;-3.70;99.90;;;;;;5026378;28;20438;-73
2024/01/11 04:09:20;;;;;;;21.52;8.30;;;-3.80;99.90;;;;;;5027222;28;20053;-72
2024/01/11 04:11:46;;;;;;;21.00;7.85;;;-3.80;99.90;;;;;;5020997;28;20524;-73
2024/01/11 04:14:12;;;;;;;17.60;6.85;;;-3.80;99.90;;;;;;5025404;28;20037;-75
2024/01/11 04:16:41;;;;;;;20.35;8.48;;;-3.80;99.90;;;;;;5026131;28;20042;-73
2024/01/11 04:19:07;;;;;;;23.92;7.78;;;-3.80;99.90;;;;;;5015213;28;20091;-72
2024/01/11 04:21:33;;;;;;;21.10;7.53;;;-3.80;99.90;;;;;;5013175;28;20045;-72
2024/01/11 04:23:59;;;;;;;22.52;9.15;;;-3.80;99.90;;;;;;5005520;28;20036;-73
2024/01/11 04:26:24;;;;;;;19.98;8.20;;;-3.90;99.90;;;;;;5016762;28;20045;-73
2024/01/11 04:28:51;;;;;;;20.38;6.93;;;-3.80;99.90;;;;;;5025067;28;20034;-73
2024/01/11 04:31:17;;;;;;;23.38;8.13;;;-3.80;99.90;;;;;;5023834;28;20037;-73
2024/01/11 04:33:44;;;;;;;26.50;9.45;;;-3.80;99.90;;;;;;5026130;28;20037;-72
2024/01/11 04:36:10;;;;;;;20.42;7.57;;;-3.80;99.90;;;;;;5014560;28;20105;-72
2024/01/11 04:38:37;;;;;;;19.52;7.90;;;-3.80;99.90;;;;;;5012772;28;20059;-72
2024/01/11 04:41:12;;;;;;;18.55;8.25;;;-3.80;99.90;;;;;;5019135;28;20030;-72
2024/01/11 04:43:45;;;;;;;21.42;7.10;;;-3.80;99.90;;;;;;5020313;28;20116;-72
2024/01/11 04:46:20;;;;;;;22.50;9.00;;;-3.80;99.90;;;;;;5007970;28;20037;-73
2024/01/11 04:48:47;;;;;;;22.58;7.95;;;-3.80;99.90;;;;;;5013749;28;20079;-72
2024/01/11 04:51:13;;;;;;;21.73;7.80;;;-3.90;99.90;;;;;;5023702;28;20033;-72
2024/01/11 04:53:40;;;;;;;21.20;8.68;;;-3.80;99.90;;;;;;5023716;28;20064;-72
2024/01/11 04:56:10;;;;;;;24.45;8.85;;;-3.90;99.90;;;;;;5019467;28;20953;-72
2024/01/11 04:58:39;;;;;;;24.85;9.38;;;-3.90;99.90;;;;;;5041417;28;20044;-73
2024/01/11 05:01:05;;;;;;;23.70;9.90;;;-3.90;99.90;;;;;;5034964;28;20056;-72
2024/01/11 05:03:32;;;;;;;21.60;8.93;;;-3.80;99.90;;;;;;5024199;28;20091;-72
2024/01/11 05:05:58;;;;;;;20.45;8.10;;;-3.90;99.90;;;;;;5025077;28;20034;-72
2024/01/11 05:08:25;;;;;;;22.85;9.00;;;-3.90;99.90;;;;;;5038722;28;20033;-72
2024/01/11 05:10:50;;;;;;;27.35;9.52;;;-3.90;99.90;;;;;;5015592;28;20042;-72
2024/01/11 05:13:17;;;;;;;26.42;9.30;;;-3.90;99.90;;;;;;5021406;28;20107;-72
2024/01/11 05:15:42;;;;;;;24.40;9.57;;;-3.90;99.90;;;;;;5017892;28;20456;-72
2024/01/11 05:18:08;;;;;;;25.17;9.13;;;-3.90;99.90;;;;;;5015990;28;20034;-73
2024/01/11 05:20:33;;;;;;;23.45;10.00;;;-4.00;99.90;;;;;;5009290;28;20038;-72
2024/01/11 05:23:00;;;;;;;23.95;8.73;;;-4.00;99.90;;;;;;5003600;28;20034;-74
2024/01/11 05:25:26;;;;;;;21.67;9.27;;;-4.00;99.90;;;;;;5005892;28;20041;-72
2024/01/11 05:27:52;;;;;;;24.55;9.45;;;-4.00;99.90;;;;;;5003859;28;20534;-72
2024/01/11 05:30:17;;;;;;;21.75;8.93;;;-4.00;99.90;;;;;;5006549;28;20163;-72
2024/01/11 05:32:43;;;;;;;24.15;9.52;;;-4.00;99.90;;;;;;5015698;28;20037;-72
2024/01/11 05:35:10;;;;;;;23.75;9.82;;;-4.00;99.90;;;;;;5011563;28;20091;-73
2024/01/11 05:37:36;;;;;;;24.98;9.77;;;-4.10;99.90;;;;;;5014438;28;20054;-72
2024/01/11 05:40:02;;;;;;;26.60;9.10;;;-4.10;99.90;;;;;;5009399;28;20061;-71
2024/01/11 05:42:27;;;;;;;22.77;8.80;;;-4.10;99.90;;;;;;5030695;28;20571;-72
2024/01/11 05:44:53;;;;;;;23.55;9.13;;;-4.10;99.90;;;;;;5027420;28;20213;-72
2024/01/11 05:47:18;;;;;;;26.20;9.75;;;-4.10;99.90;;;;;;5026629;28;20063;-73
2024/01/11 05:49:45;;;;;;;26.25;10.27;;;-4.10;99.90;;;;;;5028538;28;20060;-72
2024/01/11 05:52:10;;;;;;;27.77;10.52;;;-4.10;99.90;;;;;;5014474;28;20030;-72
2024/01/11 05:54:36;;;;;;;24.35;10.68;;;-4.20;99.90;;;;;;5021368;28;20095;-72
2024/01/11 05:57:02;;;;;;;29.58;11.93;;;-4.20;99.90;;;;;;5011295;28;20459;-72
2024/01/11 05:59:28;;;;;;;25.60;9.68;;;-4.20;99.90;;;;;;5028444;28;20039;-73
2024/01/11 06:01:53;;;;;;;24.50;10.52;;;-4.20;99.90;;;;;;5028710;28;20045;-73
2024/01/11 06:04:19;;;;;;;26.77;10.07;;;-4.20;99.90;;;;;;5013699;28;20509;-72
2024/01/11 06:06:44;;;;;;;27.15;10.93;;;-4.20;99.90;;;;;;5009820;28;20034;-72
2024/01/11 06:09:10;;;;;;;27.55;9.82;;;-4.30;99.90;;;;;;5026257;28;20532;-72
2024/01/11 06:11:36;;;;;;;29.80;10.10;;;-4.30;99.90;;;;;;5028621;28;20137;-72
2024/01/11 06:14:02;;;;;;;22.60;8.20;;;-4.30;99.90;;;;;;5026202;28;20041;-74
2024/01/11 06:16:28;;;;;;;24.55;9.73;;;-4.30;99.90;;;;;;5028320;28;20043;-74
2024/01/11 06:18:54;;;;;;;24.65;9.98;;;-4.30;99.90;;;;;;5019579;28;20499;-71
2024/01/11 06:21:19;;;;;;;25.67;9.00;;;-4.30;99.90;;;;;;5010588;28;20183;-72
2024/01/11 06:23:45;;;;;;;25.33;10.68;;;-4.30;99.90;;;;;;5015303;28;20061;-73
2024/01/11 06:26:11;;;;;;;23.42;9.63;;;-4.30;99.90;;;;;;5022889;28;20091;-72
2024/01/11 06:28:36;;;;;;;26.58;11.15;;;-4.30;99.90;;;;;;5028006;28;20037;-72
2024/01/11 06:31:03;;;;;;;30.13;12.18;;;-4.30;99.90;;;;;;5005618;28;20050;-72
2024/01/11 06:33:28;;;;;;;25.13;10.77;;;-4.30;99.90;;;;;;5006741;28;20030;-73
2024/01/11 06:35:54;;;;;;;27.48;11.75;;;-4.30;99.90;;;;;;5006426;28;20085;-73
2024/01/11 06:38:19;;;;;;;24.60;10.35;;;-4.20;99.90;;;;;;5017943;28;20410;-72
2024/01/11 06:40:45;;;;;;;27.17;10.35;;;-4.20;99.90;;;;;;5015137;28;20048;-73
2024/01/11 06:43:11;;;;;;;28.88;10.88;;;-4.20;99.90;;;;;;5019047;28;20040;-73
2024/01/11 06:45:37;;;;;;;27.42;10.15;;;-4.10;99.90;;;;;;5021714;28;20041;-72
2024/01/11 06:48:02;;;;;;;29.55;11.60;;;-4.10;99.90;;;;;;5026328;28;20057;-72
2024/01/11 06:50:28;;;;;;;24.50;11.40;;;-4.10;99.90;;;;;;5025774;28;20398;-72
2024/01/11 06:52:54;;;;;;;32.70;13.45;;;-4.10;99.90;;;;;;5007511;28;20030;-73
2024/01/11 06:55:20;;;;;;;28.33;10.82;;;-4.10;99.90;;;;;;5023702;28;20072;-72
2024/01/11 06:57:48;;;;;;;29.83;12.60;;;-4.10;99.90;;;;;;5035006;28;20028;-72
2024/01/11 07:00:14;;;;;;;32.60;10.90;;;-4.00;99.90;;;;;;5034240;28;20123;-72
2024/01/11 07:02:40;;;;;;;29.90;10.75;;;-4.10;99.90;;;;;;5024552;28;20125;-72
2024/01/11 07:05:06;;;;;;;26.38;10.05;;;-4.10;99.90;;;;;;5022714;28;20033;-72
2024/01/11 07:07:32;;;;;;;30.33;11.35;;;-4.10;99.90;;;;;;5020887;28;20032;-73
2024/01/11 07:09:58;;;;;;;25.40;10.80;;;-4.10;99.90;;;;;;5015791;28;20054;-73
2024/01/11 07:12:24;;;;;;;26.15;10.98;;;-4.10;99.90;;;;;;5008185;28;20033;-72
2024/01/11 07:14:51;;;;;;;27.10;11.15;;;-4.10;99.90;;;;;;5022818;28;20033;-72
2024/01/11 07:17:17;;;;;;;29.15;11.82;;;-4.10;99.90;;;;;;5022457;28;20489;-72
2024/01/11 07:19:43;;;;;;;29.42;10.63;;;-4.10;99.90;;;;;;5009252;28;20072;-73
2024/01/11 07:22:09;;;;;;;29.13;11.15;;;-4.10;99.90;;;;;;5014546;28;20170;-72
2024/01/11 07:24:37;;;;;;;29.15;11.77;;;-4.10;99.90;;;;;;5013896;28;20132;-72
2024/01/11 07:27:06;;;;;;;29.95;11.55;;;-4.10;99.90;;;;;;5006617;28;20034;-72
2024/01/11 07:29:32;;;;;;;30.70;12.05;;;-4.10;99.90;;;;;;5009874;28;20129;-72
2024/01/11 07:31:58;;;;;;;29.25;11.32;;;-4.00;99.90;;;;;;5013126;28;20040;-71
2024/01/11 07:34:24;;;;;;;32.63;12.48;;;-4.10;99.90;;;;;;5024380;28;20619;-72
2024/01/11 07:36:50;;;;;;;26.92;10.57;;;-4.10;99.90;;;;;;5006775;28;20088;-71
2024/01/11 07:39:16;;;;;;;31.58;11.35;;;-4.10;99.90;;;;;;5004354;28;20030;-72
2024/01/11 07:41:41;;;;;;;26.17;10.68;;;-4.10;99.90;;;;;;5019760;28;20124;-72
2024/01/11 07:44:07;;;;;;;31.83;12.18;;;-4.10;99.90;;;;;;5020371;28;20117;-71
2024/01/11 07:46:33;;;;;;;28.20;10.63;;;-4.10;99.90;;;;;;5017697;28;20701;-71
2024/01/11 07:48:58;;;;;;;29.35;12.13;;;-4.10;99.90;;;;;;5007682;28;20061;-72
2024/01/11 07:51:25;;;;;;;28.63;11.43;;;-4.10;99.90;;;;;;5022553;28;20025;-72
2024/01/11 07:53:50;;;;;;;26.08;11.00;;;-4.10;99.90;;;;;;5007711;28;20042;-72
2024/01/11 07:56:17;;;;;;;26.65;11.43;;;-4.10;99.90;;;;;;5013941;28;20091;-72
2024/01/11 07:58:42;;;;;;;31.05;12.43;;;-4.10;99.90;;;;;;5039578;28;20037;-72
2024/01/11 08:01:09;;;;;;;29.52;11.10;;;-4.10;99.90;;;;;;5016386;28;20886;-72
2024/01/11 08:03:35;;;;;;;29.75;12.05;;;-4.10;99.90;;;;;;5005224;28;20029;-72
2024/01/11 08:06:01;;;;;;;28.00;11.68;;;-4.10;99.90;;;;;;5025055;28;20418;-72
2024/01/11 08:08:27;;;;;;;26.02;11.52;;;-4.10;99.90;;;;;;5033420;28;20041;-72
2024/01/11 08:10:53;;;;;;;30.90;11.95;;;-4.10;99.90;;;;;;5011398;28;20052;-74
2024/01/11 08:13:21;;;;;;;28.38;12.02;;;-4.00;99.90;;;;;;5011051;28;20033;-72
2024/01/11 08:15:47;;;;;;;30.30;12.45;;;-4.00;99.90;;;;;;5024663;28;20039;-72
2024/01/11 08:18:13;;;;;;;31.27;11.27;;;-4.00;99.90;;;;;;5028900;28;20040;-72
2024/01/11 08:20:39;;;;;;;27.30;10.82;;;-3.90;99.90;;;;;;5016521;28;20045;-72
2024/01/11 08:23:05;;;;;;;30.73;10.65;;;-3.90;99.90;;;;;;5007570;28;20041;-72
2024/01/11 08:25:30;;;;;;;33.85;13.88;;;-3.90;99.90;;;;;;5025542;28;20045;-71
2024/01/11 08:27:56;;;;;;;31.77;12.55;;;-3.90;99.90;;;;;;5013055;28;20406;-72
2024/01/11 08:30:22;;;;;;;36.25;11.98;;;-3.90;99.90;;;;;;5023554;28;20022;-72
2024/01/11 08:32:48;;;;;;;33.25;11.93;;;-3.90;99.90;;;;;;5032061;28;20044;-72
2024/01/11 08:35:14;;;;;;;36.28;12.98;;;-3.80;99.90;;;;;;5021318;28;20034;-72
2024/01/11 08:37:40;;;;;;;36.78;14.18;;;-3.80;99.90;;;;;;5017532;28;20037;-72
2024/01/11 08:40:06;;;;;;;35.05;13.13;;;-3.70;99.90;;;;;;5020093;28;20505;-72
2024/01/11 08:42:32;;;;;;;30.42;13.18;;;-3.70;99.90;;;;;;5016007;28;20112;-72
2024/01/11 08:44:58;;;;;;;25.52;10.77;;;-3.70;99.90;;;;;;5011071;28;20087;-72
2024/01/11 08:47:24;;;;;;;35.45;12.27;;;-3.70;99.90;;;;;;5012045;28;20037;-72
2024/01/11 08:49:49;;;;;;;31.30;11.98;;;-3.60;99.90;;;;;;5023489;28;20091;-71
2024/01/11 08:52:15;;;;;;;31.83;12.45;;;-3.60;99.90;;;;;;5023752;28;20045;-72
2024/01/11 08:54:41;;;;;;;33.60;13.55;;;-3.50;99.90;;;;;;5025817;28;20556;-72
2024/01/11 08:57:06;;;;;;;33.80;12.65;;;-3.50;99.90;;;;;;5027733;28;20033;-72
2024/01/11 08:59:32;;;;;;;25.70;10.75;;;-3.40;99.90;;;;;;5035135;28;20098;-72
2024/01/11 09:01:58;;;;;;;31.10;13.13;;;-3.30;99.90;;;;;;5019023;28;20038;-72
2024/01/11 09:04:24;;;;;;;29.45;11.00;;;-3.20;99.90;;;;;;5020014;28;20207;-73
2024/01/11 09:06:49;;;;;;;27.80;11.68;;;-3.20;99.90;;;;;;5009233;28;20129;-72
2024/01/11 09:09:16;;;;;;;32.88;11.43;;;-3.10;99.90;;;;;;5013902;28;20048;-72
2024/01/11 09:11:42;;;;;;;40.20;11.70;;;-3.10;99.90;;;;;;5022477;28;20052;-73
2024/01/11 09:14:10;;;;;;;33.63;13.75;;;-3.10;99.90;;;;;;5026024;28;20497;-72
2024/01/11 09:16:36;;;;;;;30.98;10.98;;;-3.00;99.90;;;;;;5013756;28;20033;-73
2024/01/11 09:19:02;;;;;;;32.97;11.57;;;-2.80;99.90;;;;;;5007947;28;20056;-72
2024/01/11 09:21:27;;;;;;;31.52;12.80;;;-2.70;99.90;;;;;;5024089;28;20080;-72
2024/01/11 09:23:53;;;;;;;30.80;12.40;;;-2.70;99.90;;;;;;5023057;28;20128;-73
2024/01/11 09:26:19;;;;;;;31.25;11.45;;;-2.60;99.90;;;;;;5014520;28;20124;-73
2024/01/11 09:28:45;;;;;;;30.52;11.02;;;-2.60;99.90;;;;;;5022960;28;20041;-72
2024/01/11 09:31:11;;;;;;;27.02;10.38;;;-2.50;99.90;;;;;;5028318;28;20037;-72
2024/01/11 09:33:37;;;;;;;25.20;10.30;;;-2.40;99.90;;;;;;5012471;28;20045;-71
2024/01/11 09:36:03;;;;;;;26.02;11.13;;;-2.40;99.90;;;;;;5015092;28;20481;-72
2024/01/11 09:38:29;;;;;;;26.45;10.75;;;-2.30;99.90;;;;;;5016192;28;20038;-72
2024/01/11 09:41:07;;;;;;;27.67;10.80;;;-2.20;99.90;;;;;;5018943;28;20065;-72
2024/01/11 09:43:36;;;;;;;25.60;10.05;;;-2.00;99.90;;;;;;5009345;28;20045;-72
2024/01/11 09:46:06;;;;;;;27.75;9.55;;;-1.90;99.90;;;;;;5018204;28;20037;-73
2024/01/11 09:48:37;;;;;;;23.63;8.60;;;-1.80;99.90;;;;;;5027499;28;20160;-72
2024/01/11 09:51:03;;;;;;;19.38;8.68;;;-1.60;99.90;;;;;;5026188;28;20034;-71
2024/01/11 09:53:32;;;;;;;24.77;8.95;;;-1.50;99.90;;;;;;5024853;28;20490;-70
2024/01/11 09:55:58;;;;;;;23.90;9.10;;;-1.40;99.90;;;;;;5027867;28;20075;-73
2024/01/11 09:58:25;;;;;;;20.08;8.27;;;-1.40;99.90;;;;;;5023467;28;20040;-72
2024/01/11 10:00:55;;;;;;;19.55;7.88;;;-1.30;99.90;;;;;;5023455;28;20026;-72
2024/01/11 10:03:24;;;;;;;15.03;6.53;;;-1.20;99.90;;;;;;5015627;28;20099;-72
2024/01/11 10:05:51;;;;;;;23.00;9.27;;;-1.10;99.90;;;;;;5009890;28;20033;-71
2024/01/11 10:08:21;;;;;;;22.20;8.55;;;-1.10;99.90;;;;;;5029067;28;20079;-73
2024/01/11 10:10:46;;;;;;;24.42;8.43;;;-1.00;99.90;;;;;;5027316;28;20141;-73
2024/01/11 10:13:12;;;;;;;18.50;7.70;;;-1.00;99.90;;;;;;5008870;28;20105;-73
2024/01/11 10:15:37;;;;;;;20.23;7.28;;;-0.90;99.90;;;;;;5025233;28;20034;-73
2024/01/11 10:18:03;;;;;;;19.48;7.28;;;-0.80;99.90;;;;;;5016283;28;20030;-73
2024/01/11 10:20:31;;;;;;;19.77;7.90;;;-0.80;99.90;;;;;;5016170;28;20084;-73
2024/01/11 10:22:57;;;;;;;20.55;8.60;;;-0.80;99.90;;;;;;5025268;28;20033;-73
2024/01/11 10:25:23;;;;;;;18.77;7.25;;;-0.70;99.90;;;;;;5023451;28;20049;-73
2024/01/11 10:27:49;;;;;;;20.15;8.30;;;-0.60;99.90;;;;;;5018751;28;20487;-75
2024/01/11 10:30:16;;;;;;;16.95;7.03;;;-0.60;99.90;;;;;;5009439;28;20079;-72
2024/01/11 10:32:45;;;;;;;19.17;7.70;;;-0.50;99.90;;;;;;5019007;28;20026;-73
2024/01/11 10:35:11;;;;;;;15.40;6.60;;;-0.40;99.90;;;;;;5005658;28;20560;-72
2024/01/11 10:37:40;;;;;;;18.63;6.80;;;-0.40;99.90;;;;;;5007027;28;20026;-72
2024/01/11 10:40:17;;;;;;;17.48;6.43;;;-0.30;99.90;;;;;;5005385;28;20037;-72
2024/01/11 10:42:44;;;;;;;17.10;7.22;;;-0.30;99.90;;;;;;5015160;28;20053;-72
2024/01/11 10:45:31;;;;;;;17.65;6.30;;;-0.20;99.90;;;;;;5007104;28;20049;-73
2024/01/11 10:48:05;;;;;;;16.40;7.18;;;-0.10;99.90;;;;;;5022041;28;20398;-74
2024/01/11 10:50:35;;;;;;;21.17;7.75;;;0.00;99.90;;;;;;5014956;28;20091;-71
2024/01/11 10:53:21;;;;;;;15.88;6.75;;;0.10;99.90;;;;;;5012444;28;20087;-72
2024/01/11 10:55:48;;;;;;;17.80;7.82;;;0.10;99.90;;;;;;5012930;28;20037;-72
2024/01/11 10:58:16;;;;;;;17.15;7.22;;;0.10;99.90;;;;;;5031591;28;20033;-71
2024/01/11 11:00:41;;;;;;;15.02;6.55;;;0.20;99.90;;;;;;5012321;28;20514;-73
2024/01/11 11:03:11;;;;;;;16.52;6.68;;;0.30;99.90;;;;;;5005338;28;20041;-74
2024/01/11 11:05:37;;;;;;;16.52;6.28;;;0.30;99.90;;;;;;5020213;28;20037;-72
2024/01/11 11:08:05;;;;;;;15.32;6.20;;;0.40;99.90;;;;;;5035237;28;20029;-72
2024/01/11 11:10:34;;;;;;;15.05;6.57;;;0.50;99.90;;;;;;5007790;28;20096;-72
2024/01/11 11:13:00;;;;;;;13.80;6.63;;;0.40;99.90;;;;;;5011585;28;20038;-73
2024/01/11 11:15:29;;;;;;;16.75;7.10;;;0.40;99.90;;;;;;5026092;28;20129;-73
2024/01/11 11:17:56;;;;;;;14.32;7.07;;;0.50;99.90;;;;;;5027097;28;20043;-74
2024/01/11 11:20:22;;;;;;;15.57;7.25;;;0.50;99.90;;;;;;5005095;28;20033;-71
2024/01/11 11:23:06;;;;;;;18.48;7.93;;;0.50;99.90;;;;;;5005840;28;20022;-72
2024/01/11 11:25:32;;;;;;;14.80;6.13;;;0.40;99.90;;;;;;5018740;28;20045;-73
2024/01/11 11:28:03;;;;;;;16.75;6.53;;;0.40;99.90;;;;;;5006384;28;20030;-74
2024/01/11 11:30:33;;;;;;;20.40;7.68;;;0.50;99.90;;;;;;5014639;28;20033;-74
2024/01/11 11:33:27;;;;;;;17.10;6.82;;;0.50;99.90;;;;;;5005033;28;20088;-73
2024/01/11 11:35:55;;;;;;;14.70;7.03;;;0.50;99.90;;;;;;5018687;28;20038;-73
2024/01/11 11:38:30;;;;;;;14.35;6.10;;;0.50;99.90;;;;;;5018434;28;20030;-73
2024/01/11 11:40:58;;;;;;;20.35;7.95;;;0.50;99.90;;;;;;5009445;28;20045;-71
2024/01/11 11:43:27;;;;;;;15.05;6.72;;;0.50;99.90;;;;;;5026316;28;20603;-73
2024/01/11 11:45:53;;;;;;;16.23;6.60;;;0.60;99.90;;;;;;5018061;28;20056;-73
2024/01/11 11:48:36;;;;;;;17.23;7.63;;;0.60;99.90;;;;;;5022179;28;20072;-73
2024/01/11 11:51:15;;;;;;;20.48;6.65;;;0.60;99.90;;;;;;5025229;28;20060;-73
2024/01/11 11:53:41;;;;;;;15.43;6.45;;;0.60;99.90;;;;;;5026769;28;20042;-73
2024/01/11 11:56:12;;;;;;;14.60;6.43;;;0.60;99.90;;;;;;5015378;28;20030;-73
2024/01/11 11:58:42;;;;;;;15.80;6.38;;;0.60;99.90;;;;;;5037956;28;20033;-73
2024/01/11 12:01:08;;;;;;;16.13;7.10;;;0.70;99.90;;;;;;5044301;28;20112;-73
2024/01/11 12:03:41;;;;;;;15.55;7.35;;;0.70;99.90;;;;;;5039185;28;20041;-73
2024/01/11 12:06:12;;;;;;;16.52;6.53;;;0.70;99.90;;;;;;5023526;28;20136;-73
2024/01/11 12:08:42;;;;;;;20.38;7.72;;;0.80;99.90;;;;;;5004197;28;20030;-72
2024/01/11 12:11:07;;;;;;;20.25;6.97;;;0.90;99.90;;;;;;5006040;28;20029;-72
2024/01/11 12:13:34;;;;;;;17.00;7.88;;;0.90;99.90;;;;;;5007589;28;20046;-73
2024/01/11 12:16:00;;;;;;;14.68;6.45;;;0.90;99.90;;;;;;5009523;28;20025;-73
2024/01/11 12:18:25;;;;;;;16.48;7.72;;;0.90;99.90;;;;;;5013614;28;20029;-74
2024/01/11 12:20:53;;;;;;;14.05;6.15;;;1.00;99.90;;;;;;5004138;28;20041;-73
2024/01/11 12:23:19;;;;;;;20.85;6.45;;;1.00;99.90;;;;;;5024213;28;20168;-72
2024/01/11 12:25:44;;;;;;;14.10;6.18;;;1.00;99.90;;;;;;5010533;28;20516;-73
2024/01/11 12:28:11;;;;;;;14.68;6.00;;;1.10;99.90;;;;;;5018866;28;20033;-72
2024/01/11 12:30:36;;;;;;;16.15;7.00;;;1.20;99.90;;;;;;5024381;28;20044;-73
2024/01/11 12:33:03;;;;;;;13.95;6.63;;;1.20;99.90;;;;;;5017750;28;20022;-73